createdAt,value
2023-01-30T00:01:02.146Z,2.69
2023-01-30T00:03:34.572Z,2.71
2023-01-30T00:06:03.597Z,2.71
2023-01-30T00:08:33.919Z,2.72
2023-01-30T00:11:04.899Z,2.74
2023-01-30T00:13:36.619Z,2.74
2023-01-30T00:16:09.864Z,2.74
2023-01-30T00:18:38.803Z,2.74
2023-01-30T00:21:08.904Z,2.76
2023-01-30T00:23:43.825Z,2.76
2023-01-30T00:26:15.585Z,2.75
2023-01-30T00:28:44.229Z,2.75
2023-01-30T00:31:12.998Z,2.75
2023-01-30T00:33:41.600Z,2.73
2023-01-30T00:36:11.610Z,2.72
2023-01-30T00:38:41.185Z,2.76
2023-01-30T00:41:23.020Z,2.80
2023-01-30T00:44:08.932Z,2.82
2023-01-30T00:46:51.260Z,2.85
2023-01-30T00:49:20.988Z,2.87
2023-01-30T00:51:52.043Z,2.86
2023-01-30T00:54:22.067Z,2.89
2023-01-30T00:56:51.464Z,2.89
2023-01-30T00:59:20.812Z,2.89
2023-01-30T01:01:51.596Z,2.90
2023-01-30T01:04:20.570Z,2.93
2023-01-30T01:06:51.791Z,2.94
2023-01-30T01:09:22.702Z,2.95
2023-01-30T01:11:51.268Z,2.95
2023-01-30T01:14:20.272Z,2.94
2023-01-30T01:16:52.612Z,2.92
2023-01-30T01:19:20.956Z,2.86
2023-01-30T01:21:52.688Z,2.82
2023-01-30T01:24:22.387Z,2.80
2023-01-30T01:26:55.820Z,2.76
2023-01-30T01:29:24.064Z,2.75
2023-01-30T01:31:52.710Z,2.76
2023-01-30T01:34:25.324Z,2.75
2023-01-30T01:36:56.310Z,2.75
2023-01-30T01:39:46.030Z,2.76
2023-01-30T01:42:16.025Z,2.74
2023-01-30T01:45:18.191Z,2.74
2023-01-30T01:47:50.420Z,2.74
2023-01-30T01:50:24.939Z,2.75
2023-01-30T01:52:56.033Z,2.73
2023-01-30T01:55:26.687Z,2.72
2023-01-30T01:57:59.886Z,2.70
2023-01-30T02:00:30.047Z,2.67
2023-01-30T02:03:01.974Z,2.63
2023-01-30T02:05:34.517Z,2.59
2023-01-30T02:08:06.514Z,2.58
2023-01-30T02:10:39.457Z,2.60
2023-01-30T02:13:11.915Z,2.61
2023-01-30T02:15:40.896Z,2.61
2023-01-30T02:18:09.563Z,2.62
2023-01-30T02:20:51.353Z,2.61
2023-01-30T02:23:36.298Z,2.64
2023-01-30T02:26:16.092Z,2.63
2023-01-30T02:29:00.993Z,2.61
2023-01-30T02:31:38.584Z,2.58
2023-01-30T02:34:15.948Z,2.55
2023-01-30T02:36:53.686Z,2.50
2023-01-30T02:39:29.799Z,2.47
2023-01-30T02:42:02.854Z,2.45
2023-01-30T02:44:41.807Z,2.43
2023-01-30T02:47:19.175Z,2.43
2023-01-30T02:49:50.805Z,2.39
2023-01-30T02:52:19.355Z,2.39
2023-01-30T02:54:48.905Z,2.37
2023-01-30T02:57:24.361Z,2.37
2023-01-30T02:59:58.355Z,2.38
2023-01-30T03:02:36.980Z,2.40
2023-01-30T03:05:16.668Z,2.39
2023-01-30T03:07:47.659Z,2.40
2023-01-30T03:10:20.317Z,2.38
2023-01-30T03:13:04.185Z,2.37
2023-01-30T03:15:36.336Z,2.38
2023-01-30T03:18:10.610Z,2.37
2023-01-30T03:20:40.973Z,2.37
2023-01-30T03:23:09.092Z,2.36
2023-01-30T03:25:38.920Z,2.36
2023-01-30T03:28:13.618Z,2.35
2023-01-30T03:30:43.846Z,2.32
2023-01-30T03:33:13.949Z,2.31
2023-01-30T03:35:48.818Z,2.30
2023-01-30T03:38:18.388Z,2.31
2023-01-30T03:40:48.966Z,2.31
2023-01-30T03:43:21.572Z,2.31
2023-01-30T03:45:52.317Z,2.32
2023-01-30T03:48:22.179Z,2.30
2023-01-30T03:50:50.928Z,2.30
2023-01-30T03:53:25.480Z,2.33
2023-01-30T03:55:55.839Z,2.34
2023-01-30T03:58:28.747Z,2.38
2023-01-30T04:00:59.925Z,2.38
2023-01-30T04:03:31.083Z,2.38
2023-01-30T04:06:01.662Z,2.38
2023-01-30T04:08:31.171Z,2.40
2023-01-30T04:11:00.622Z,2.42
2023-01-30T04:13:28.947Z,2.43
2023-01-30T04:16:12.005Z,2.45
2023-01-30T04:19:05.422Z,2.47
2023-01-30T04:21:35.126Z,2.47
2023-01-30T04:24:08.346Z,2.47
2023-01-30T04:26:37.040Z,2.50
2023-01-30T04:29:05.922Z,2.51
2023-01-30T04:31:35.976Z,2.54
2023-01-30T04:34:15.892Z,2.56
2023-01-30T04:36:52.325Z,2.58
2023-01-30T04:39:25.780Z,2.59
2023-01-30T04:41:54.730Z,2.61
2023-01-30T04:44:25.081Z,2.63
2023-01-30T04:47:11.819Z,2.65
2023-01-30T04:49:45.470Z,2.67
2023-01-30T04:52:20.091Z,2.69
2023-01-30T04:54:48.610Z,2.71
2023-01-30T04:57:17.714Z,2.73
2023-01-30T04:59:47.598Z,2.72
2023-01-30T05:02:17.912Z,2.71
2023-01-30T05:04:50.586Z,2.73
2023-01-30T05:07:21.173Z,2.75
2023-01-30T05:09:54.145Z,2.78
2023-01-30T05:12:23.163Z,2.80
2023-01-30T05:14:51.844Z,2.80
2023-01-30T05:17:21.160Z,2.82
2023-01-30T05:19:56.514Z,2.81
2023-01-30T05:22:25.118Z,2.81
2023-01-30T05:24:54.876Z,2.82
2023-01-30T05:27:23.265Z,2.81
2023-01-30T05:29:52.480Z,2.79
2023-01-30T05:32:26.325Z,2.79
2023-01-30T05:34:57.450Z,2.77
2023-01-30T05:37:26.873Z,2.75
2023-01-30T05:39:55.505Z,2.74
2023-01-30T05:42:24.611Z,2.74
2023-01-30T05:44:52.859Z,2.73
2023-01-30T05:47:21.385Z,2.72
2023-01-30T05:49:50.745Z,2.71
2023-01-30T05:52:21.312Z,2.68
2023-01-30T05:54:49.960Z,2.67
2023-01-30T05:57:18.742Z,2.66
2023-01-30T05:59:46.636Z,2.65
2023-01-30T06:02:15.773Z,2.65
2023-01-30T06:04:44.544Z,2.66
2023-01-30T06:07:13.152Z,2.67
2023-01-30T06:09:43.382Z,2.67
2023-01-30T06:12:12.973Z,2.67
2023-01-30T06:14:42.504Z,2.68
2023-01-30T06:17:11.452Z,2.69
2023-01-30T06:19:40.567Z,2.72
2023-01-30T06:22:08.840Z,2.76
2023-01-30T06:24:39.440Z,2.79
2023-01-30T06:27:09.525Z,2.82
2023-01-30T06:29:40.759Z,2.83
2023-01-30T06:32:17.029Z,2.82
2023-01-30T06:34:45.759Z,2.84
2023-01-30T06:37:16.098Z,2.86
2023-01-30T06:39:45.805Z,2.87
2023-01-30T06:42:18.794Z,2.87
2023-01-30T06:44:48.590Z,2.86
2023-01-30T06:47:19.774Z,2.86
2023-01-30T06:49:49.328Z,2.86
2023-01-30T06:52:17.915Z,2.86
2023-01-30T06:54:46.751Z,2.89
2023-01-30T06:57:19.166Z,2.90
2023-01-30T06:59:47.442Z,2.93
2023-01-30T07:02:16.954Z,2.96
2023-01-30T07:04:45.486Z,3.01
2023-01-30T07:07:14.211Z,3.04
2023-01-30T07:09:47.740Z,3.07
2023-01-30T07:12:22.691Z,3.11
2023-01-30T07:14:51.886Z,3.14
2023-01-30T07:17:20.665Z,3.16
2023-01-30T07:19:49.807Z,3.17
2023-01-30T07:22:18.686Z,3.18
2023-01-30T07:24:52.369Z,3.20
2023-01-30T07:27:23.528Z,3.23
2023-01-30T07:29:57.620Z,3.25
2023-01-30T07:32:25.901Z,3.28
2023-01-30T07:34:59.102Z,3.31
2023-01-30T07:37:27.141Z,3.34
2023-01-30T07:40:00.027Z,3.39
2023-01-30T07:42:30.811Z,3.42
2023-01-30T07:44:59.435Z,3.45
2023-01-30T07:47:28.838Z,3.47
2023-01-30T07:49:58.516Z,3.51
2023-01-30T07:52:31.111Z,3.55
2023-01-30T07:55:01.367Z,3.56
2023-01-30T07:57:32.585Z,3.57
2023-01-30T08:00:01.103Z,3.59
2023-01-30T08:02:30.871Z,3.61
2023-01-30T08:05:06.097Z,3.62
2023-01-30T08:07:35.078Z,3.64
2023-01-30T08:10:04.353Z,3.66
2023-01-30T08:12:34.631Z,3.67
2023-01-30T08:15:04.435Z,3.68
2023-01-30T08:17:33.402Z,3.71
2023-01-30T08:20:02.407Z,3.74
2023-01-30T08:22:31.418Z,3.76
2023-01-30T08:25:03.693Z,3.80
2023-01-30T08:27:33.973Z,3.85
2023-01-30T08:30:05.552Z,3.89
2023-01-30T08:32:34.310Z,3.95
2023-01-30T08:35:04.725Z,4.02
2023-01-30T08:37:33.341Z,4.05
2023-01-30T08:40:03.571Z,4.11
2023-01-30T08:42:33.553Z,4.15
2023-01-30T08:45:01.997Z,4.18
2023-01-30T08:47:32.899Z,4.22
2023-01-30T08:50:03.465Z,4.27
2023-01-30T08:52:33.976Z,4.31
2023-01-30T08:55:02.783Z,4.33
2023-01-30T08:57:32.816Z,4.35
2023-01-30T09:00:02.063Z,4.37
2023-01-30T09:02:32.874Z,4.43
2023-01-30T09:05:01.901Z,4.50
2023-01-30T09:07:30.973Z,4.54
2023-01-30T09:10:00.206Z,4.60
2023-01-30T09:12:29.897Z,4.66
2023-01-30T09:15:00.702Z,4.69
2023-01-30T09:17:29.082Z,4.72
2023-01-30T09:19:59.934Z,4.76
2023-01-30T09:22:28.598Z,4.81
2023-01-30T09:24:56.814Z,4.85
2023-01-30T09:27:25.593Z,4.90
2023-01-30T09:29:55.075Z,4.95
2023-01-30T09:32:23.173Z,4.99
2023-01-30T09:34:52.573Z,5.05
2023-01-30T09:37:27.438Z,5.09
2023-01-30T09:39:55.715Z,5.11
2023-01-30T09:42:38.172Z,5.13
2023-01-30T09:45:26.852Z,5.15
2023-01-30T09:48:01.801Z,5.20
2023-01-30T09:50:45.556Z,5.25
2023-01-30T09:53:20.094Z,5.30
2023-01-30T09:55:52.336Z,5.36
2023-01-30T09:58:22.205Z,5.41
2023-01-30T10:00:56.447Z,5.44
2023-01-30T10:03:29.152Z,5.48
2023-01-30T10:05:58.351Z,5.53
2023-01-30T10:08:47.384Z,5.56
2023-01-30T10:11:23.826Z,5.61
2023-01-30T10:14:05.584Z,5.69
2023-01-30T10:16:37.201Z,5.75
2023-01-30T10:19:26.090Z,5.81
2023-01-30T10:22:06.080Z,5.87
2023-01-30T10:24:39.653Z,5.90
2023-01-30T10:27:16.926Z,5.93
2023-01-30T10:29:48.381Z,5.97
2023-01-30T10:32:20.321Z,6.00
2023-01-30T10:34:51.091Z,6.05
2023-01-30T10:37:23.007Z,6.13
2023-01-30T10:39:55.997Z,6.20
2023-01-30T10:42:31.909Z,6.27
2023-01-30T10:45:02.961Z,6.34
2023-01-30T10:47:46.541Z,6.40
2023-01-30T10:50:20.075Z,6.48
2023-01-30T10:53:08.732Z,6.54
2023-01-30T10:55:40.655Z,6.63
2023-01-30T10:58:18.690Z,6.69
2023-01-30T11:00:53.437Z,6.75
2023-01-30T11:03:33.423Z,6.76
2023-01-30T11:06:02.634Z,6.76
2023-01-30T11:08:34.659Z,6.77
2023-01-30T11:11:21.987Z,6.78
2023-01-30T11:13:52.851Z,6.80
2023-01-30T11:16:22.050Z,6.83
2023-01-30T11:19:22.850Z,6.82
2023-01-30T11:21:44.758Z,6.82
2023-01-30T11:24:22.444Z,6.84
2023-01-30T11:26:52.679Z,6.85
2023-01-30T11:29:35.153Z,6.87
2023-01-30T11:32:04.760Z,6.90
2023-01-30T11:34:33.165Z,6.93
2023-01-30T11:37:14.321Z,6.95
2023-01-30T11:39:50.074Z,7.00
2023-01-30T11:42:20.332Z,7.07
2023-01-30T11:45:06.462Z,7.14
2023-01-30T11:47:57.836Z,7.19
2023-01-30T11:50:34.086Z,7.22
2023-01-30T11:53:07.581Z,7.24
2023-01-30T11:55:39.664Z,7.25
2023-01-30T11:58:09.896Z,7.24
2023-01-30T12:00:44.024Z,7.23
2023-01-30T12:03:14.885Z,7.23
2023-01-30T12:05:48.764Z,7.25
2023-01-30T12:08:40.707Z,7.31
2023-01-30T12:11:26.136Z,7.41
2023-01-30T12:13:55.301Z,7.51
2023-01-30T12:16:33.191Z,7.60
2023-01-30T12:19:05.227Z,7.70
2023-01-30T12:21:38.330Z,7.77
2023-01-30T12:24:19.055Z,7.82
2023-01-30T12:26:50.472Z,7.85
2023-01-30T12:29:24.838Z,7.84
2023-01-30T12:31:59.966Z,7.80
2023-01-30T12:34:28.399Z,7.70
2023-01-30T12:37:09.840Z,7.60
2023-01-30T12:39:44.777Z,7.54
2023-01-30T12:42:36.209Z,7.49
2023-01-30T12:45:14.827Z,7.47
2023-01-30T12:48:02.612Z,7.49
2023-01-30T12:50:41.725Z,7.55
2023-01-30T12:53:17.081Z,7.62
2023-01-30T12:55:52.179Z,7.66
2023-01-30T12:58:23.554Z,7.72
2023-01-30T13:01:07.471Z,7.80
2023-01-30T13:03:42.234Z,7.87
2023-01-30T13:06:22.147Z,7.89
2023-01-30T13:08:57.480Z,7.87
2023-01-30T13:11:37.602Z,7.89
2023-01-30T13:14:12.349Z,7.90
2023-01-30T13:16:49.278Z,7.90
2023-01-30T13:19:21.169Z,7.89
2023-01-30T13:21:58.496Z,7.88
2023-01-30T13:24:32.224Z,7.87
2023-01-30T13:27:03.777Z,7.83
2023-01-30T13:29:34.827Z,7.76
2023-01-30T13:32:07.036Z,7.69
2023-01-30T13:34:37.381Z,7.61
2023-01-30T13:37:09.166Z,7.54
2023-01-30T13:39:42.658Z,7.47
2023-01-30T13:42:14.870Z,7.39
2023-01-30T13:44:47.063Z,7.33
2023-01-30T13:47:23.342Z,7.31
2023-01-30T13:49:58.335Z,7.30
2023-01-30T13:52:35.764Z,7.28
2023-01-30T13:55:08.774Z,7.23
2023-01-30T13:57:45.230Z,7.19
2023-01-30T14:00:19.585Z,7.13
2023-01-30T14:03:07.162Z,7.05
2023-01-30T14:05:50.216Z,6.95
2023-01-30T14:08:24.378Z,6.87
2023-01-30T14:10:55.872Z,6.81
2023-01-30T14:13:25.439Z,6.73
2023-01-30T14:15:55.727Z,6.64
2023-01-30T14:18:25.283Z,6.55
2023-01-30T14:20:55.427Z,6.46
2023-01-30T14:23:30.328Z,6.38
2023-01-30T14:26:00.133Z,6.27
2023-01-30T14:29:03.084Z,6.20
2023-01-30T14:31:53.316Z,6.10
2023-01-30T14:34:49.128Z,5.99
2023-01-30T14:37:31.268Z,5.88
2023-01-30T14:40:01.395Z,5.81
2023-01-30T14:42:31.267Z,5.75
2023-01-30T14:45:00.884Z,5.68
2023-01-30T14:47:36.710Z,5.64
2023-01-30T14:50:20.421Z,5.61
2023-01-30T14:52:50.437Z,5.59
2023-01-30T14:55:23.337Z,5.57
2023-01-30T14:58:01.934Z,5.54
2023-01-30T15:00:33.818Z,5.50
2023-01-30T15:03:05.187Z,5.50
2023-01-30T15:05:34.231Z,5.46
2023-01-30T15:08:10.273Z,5.42
2023-01-30T15:10:48.917Z,5.38
2023-01-30T15:13:25.028Z,5.36
2023-01-30T15:16:02.145Z,5.36
2023-01-30T15:18:42.365Z,5.36
2023-01-30T15:21:26.309Z,5.33
2023-01-30T15:24:19.781Z,5.29
2023-01-30T15:26:56.807Z,5.27
2023-01-30T15:29:36.675Z,5.20
2023-01-30T15:32:16.740Z,5.13
2023-01-30T15:34:50.822Z,5.05
2023-01-30T15:37:42.944Z,4.98
2023-01-30T15:40:12.176Z,4.94
2023-01-30T15:42:45.091Z,4.91
2023-01-30T15:45:18.236Z,4.90
2023-01-30T15:47:58.333Z,4.91
2023-01-30T15:50:27.318Z,4.92
2023-01-30T15:52:58.506Z,4.93
2023-01-30T15:55:28.603Z,4.93
2023-01-30T15:58:00.503Z,4.96
2023-01-30T16:00:30.411Z,4.96
2023-01-30T16:02:59.549Z,4.96
2023-01-30T16:05:28.257Z,4.95
2023-01-30T16:07:57.949Z,4.93
2023-01-30T16:10:26.888Z,4.89
2023-01-30T16:12:56.799Z,4.88
2023-01-30T16:15:31.476Z,4.89
2023-01-30T16:18:06.239Z,4.87
2023-01-30T16:20:55.240Z,4.85
2023-01-30T16:23:31.437Z,4.83
2023-01-30T16:26:03.033Z,4.80
2023-01-30T16:28:32.877Z,4.80
2023-01-30T16:31:09.438Z,4.80
2023-01-30T16:33:39.005Z,4.81
2023-01-30T16:36:08.121Z,4.81
2023-01-30T16:38:38.083Z,4.80
2023-01-30T16:41:06.474Z,4.80
2023-01-30T16:43:35.771Z,4.80
2023-01-30T16:46:25.812Z,4.81
2023-01-30T16:49:04.230Z,4.83
2023-01-30T16:51:33.252Z,4.83
2023-01-30T16:54:03.638Z,4.84
2023-01-30T16:56:35.805Z,4.83
2023-01-30T16:59:04.815Z,4.83
2023-01-30T17:01:42.490Z,4.81
2023-01-30T17:04:22.120Z,4.78
2023-01-30T17:06:55.655Z,4.78
2023-01-30T17:09:38.851Z,4.78
2023-01-30T17:12:26.282Z,4.76
2023-01-30T17:15:21.200Z,4.73
2023-01-30T17:17:51.022Z,4.70
2023-01-30T17:20:21.690Z,4.67
2023-01-30T17:22:54.454Z,4.65
2023-01-30T17:25:29.693Z,4.65
2023-01-30T17:27:58.649Z,4.64
2023-01-30T17:30:31.011Z,4.64
2023-01-30T17:33:01.696Z,4.65
2023-01-30T17:35:32.002Z,4.65
2023-01-30T17:38:05.611Z,4.63
2023-01-30T17:40:35.838Z,4.60
2023-01-30T17:43:04.592Z,4.60
2023-01-30T17:45:34.037Z,4.60
2023-01-30T17:48:03.924Z,4.62
2023-01-30T17:50:33.798Z,4.63
2023-01-30T17:53:02.670Z,4.64
2023-01-30T17:55:31.284Z,4.67
2023-01-30T17:57:59.515Z,4.69
2023-01-30T18:00:28.751Z,4.70
2023-01-30T18:03:03.942Z,4.72
2023-01-30T18:05:36.792Z,4.74
2023-01-30T18:08:04.938Z,4.75
2023-01-30T18:10:34.216Z,4.77
2023-01-30T18:13:07.573Z,4.80
2023-01-30T18:15:39.539Z,4.83
2023-01-30T18:18:12.619Z,4.85
2023-01-30T18:20:42.448Z,4.87
2023-01-30T18:23:12.136Z,4.89
2023-01-30T18:25:41.059Z,4.91
2023-01-30T18:28:14.047Z,4.95
2023-01-30T18:30:42.804Z,4.97
2023-01-30T18:33:13.752Z,4.97
2023-01-30T18:35:44.475Z,4.99
2023-01-30T18:38:14.103Z,5.00
2023-01-30T18:40:42.375Z,5.06
2023-01-30T18:43:15.767Z,5.08
2023-01-30T18:45:44.766Z,5.10
2023-01-30T18:48:14.683Z,5.12
2023-01-30T18:50:45.150Z,5.15
2023-01-30T18:53:13.510Z,5.17
2023-01-30T18:55:51.999Z,5.19
2023-01-30T18:58:23.878Z,5.21
2023-01-30T19:00:58.529Z,5.23
2023-01-30T19:06:16.671Z,5.24
2023-01-30T19:08:45.316Z,5.26
2023-01-30T19:11:31.660Z,5.30
2023-01-30T19:14:00.414Z,5.33
2023-01-30T19:16:29.749Z,5.35
2023-01-30T19:18:58.085Z,5.36
2023-01-30T19:21:31.180Z,5.38
2023-01-30T19:24:00.418Z,5.41
2023-01-30T19:26:29.962Z,5.43
2023-01-30T19:28:58.854Z,5.43
2023-01-30T19:31:31.354Z,5.46
2023-01-30T19:34:00.856Z,5.48
2023-01-30T19:36:33.697Z,5.49
2023-01-30T19:39:03.838Z,5.50
2023-01-30T19:41:33.649Z,5.52
2023-01-30T19:44:02.699Z,5.52
2023-01-30T19:46:33.062Z,5.53
2023-01-30T19:49:12.177Z,5.56
2023-01-30T19:51:45.705Z,5.58
2023-01-30T19:54:14.309Z,5.60
2023-01-30T19:56:47.969Z,5.58
2023-01-30T19:59:17.786Z,5.59
2023-01-30T20:01:46.398Z,5.58
2023-01-30T20:04:18.891Z,5.56
2023-01-30T20:06:49.759Z,5.53
2023-01-30T20:09:19.779Z,5.53
2023-01-30T20:11:50.154Z,5.51
2023-01-30T20:14:23.913Z,5.49
2023-01-30T20:16:52.844Z,5.48
2023-01-30T20:19:21.445Z,5.48
2023-01-30T20:21:51.590Z,5.46
2023-01-30T20:24:24.844Z,5.45
2023-01-30T20:26:54.573Z,5.47
2023-01-30T20:29:24.483Z,5.47
2023-01-30T20:31:54.618Z,5.46
2023-01-30T20:34:25.439Z,5.44
2023-01-30T20:36:57.547Z,5.42
2023-01-30T20:39:29.763Z,5.38
2023-01-30T20:41:58.732Z,5.35
2023-01-30T20:44:27.078Z,5.32
2023-01-30T20:46:57.509Z,5.26
2023-01-30T20:49:27.387Z,5.22
2023-01-30T20:51:58.004Z,5.17
2023-01-30T20:54:26.914Z,5.12
2023-01-30T20:59:52.519Z,5.01
2023-01-30T21:02:20.202Z,4.97
2023-01-30T21:04:48.467Z,4.95
2023-01-30T21:07:16.153Z,4.92
2023-01-30T21:09:43.822Z,4.91
2023-01-30T21:12:12.970Z,4.88
2023-01-30T21:14:40.664Z,4.87
2023-01-30T21:17:09.668Z,4.85
2023-01-30T21:19:38.379Z,4.81
2023-01-30T21:22:10.935Z,4.79
2023-01-30T21:24:39.545Z,4.75
2023-01-30T21:27:07.212Z,4.72
2023-01-30T21:29:34.971Z,4.70
2023-01-30T21:32:02.612Z,4.67
2023-01-30T21:34:33.192Z,4.66
2023-01-30T21:37:18.367Z,4.66
2023-01-30T21:40:03.716Z,4.67
2023-01-30T21:42:49.216Z,4.67
2023-01-30T21:45:17.712Z,4.68
2023-01-30T21:47:50.892Z,4.68
2023-01-30T21:50:20.071Z,4.70
2023-01-30T21:52:47.728Z,4.72
2023-01-30T21:55:15.539Z,4.75
2023-01-30T21:57:43.315Z,4.76
2023-01-30T22:00:11.645Z,4.78
2023-01-30T22:02:39.906Z,4.82
2023-01-30T22:05:08.236Z,4.83
2023-01-30T22:07:37.683Z,4.83
2023-01-30T22:10:05.886Z,4.85
2023-01-30T22:12:33.593Z,4.88
2023-01-30T22:15:01.225Z,4.88
2023-01-30T22:17:29.023Z,4.89
2023-01-30T22:19:56.632Z,4.91
2023-01-30T22:22:25.224Z,4.90
2023-01-30T22:24:54.670Z,4.92
2023-01-30T22:27:22.484Z,4.91
2023-01-30T22:29:50.152Z,4.92
2023-01-30T22:32:17.947Z,4.90
2023-01-30T22:34:45.529Z,4.91
2023-01-30T22:37:13.394Z,4.88
2023-01-30T22:39:41.322Z,4.87
2023-01-30T22:42:10.777Z,4.86
2023-01-30T22:44:39.610Z,4.86
2023-01-30T22:47:07.410Z,4.85
2023-01-30T22:49:34.991Z,4.84
2023-01-30T22:52:02.697Z,4.84
2023-01-30T22:54:30.450Z,4.85
2023-01-30T22:56:58.246Z,4.85
2023-01-30T22:59:27.202Z,4.87
2023-01-30T23:01:54.879Z,4.86
2023-01-30T23:04:23.935Z,4.88
2023-01-30T23:06:52.349Z,4.88
2023-01-30T23:09:22.134Z,4.86
2023-01-30T23:12:10.966Z,4.82
2023-01-30T23:14:39.376Z,4.78
2023-01-30T23:17:21.700Z,4.73
2023-01-30T23:19:49.360Z,4.67
2023-01-30T23:22:17.043Z,4.63
2023-01-30T23:24:45.063Z,4.59
2023-01-30T23:27:12.907Z,4.57
2023-01-30T23:29:41.828Z,4.52
2023-01-30T23:32:09.518Z,4.50
2023-01-30T23:34:37.680Z,4.47
2023-01-30T23:37:05.373Z,4.45
2023-01-30T23:39:33.067Z,4.43
2023-01-30T23:42:00.706Z,4.40
2023-01-30T23:44:28.351Z,4.37
2023-01-30T23:46:57.279Z,4.32
2023-01-30T23:49:25.017Z,4.31
2023-01-30T23:51:52.627Z,4.30
2023-01-30T23:54:20.234Z,4.28
2023-01-30T23:56:47.852Z,4.28
2023-01-30T23:59:15.594Z,4.28
